Time;durP1;ratioP1;P1;durP2;ratioP2;P2;SDS_P1;SDS_P2;PMS_P1;PMS_P2;Temp;Humidity;BMP_temperature;BMP_pressure;BME280_temperature;BME280_humidity;BME280_pressure;Samples;Min_cycle;Max_cycle;Signal;HPM_P1;HPM_P2
2022/05/24 00:01:57;;;;;;;4.40;2.37;;;18.00;99.90;;;;;;5102991;28;20822;-73
2022/05/24 00:04:43;;;;;;;2.43;1.93;;;18.10;99.90;;;;;;5105274;28;20538;-74
2022/05/24 00:07:30;;;;;;;3.43;2.50;;;18.10;99.90;;;;;;5102651;28;20441;-73
2022/05/24 00:10:18;;;;;;;3.80;2.33;;;18.20;99.90;;;;;;5095152;28;20460;-74
2022/05/24 00:13:04;;;;;;;4.27;2.57;;;18.10;99.90;;;;;;5100216;28;20469;-73
2022/05/24 00:15:50;;;;;;;3.00;2.50;;;18.10;99.90;;;;;;5104469;28;20414;-73
2022/05/24 00:18:37;;;;;;;3.07;2.20;;;18.20;99.90;;;;;;5098492;28;20926;-73
2022/05/24 00:21:22;;;;;;;3.00;2.40;;;18.10;99.90;;;;;;5095222;28;20905;-73
2022/05/24 00:24:08;;;;;;;2.83;2.17;;;18.10;99.90;;;;;;5098034;28;20461;-74
2022/05/24 00:26:54;;;;;;;5.80;2.70;;;18.10;99.90;;;;;;5103650;28;20440;-73
2022/05/24 00:29:40;;;;;;;2.70;2.10;;;18.00;99.90;;;;;;5104777;28;20428;-73
2022/05/24 00:32:26;;;;;;;4.60;2.70;;;18.10;99.90;;;;;;5092724;28;20925;-73
2022/05/24 00:35:13;;;;;;;3.20;2.30;;;18.00;99.90;;;;;;5101056;28;20834;-73
2022/05/24 00:37:59;;;;;;;2.73;2.37;;;18.00;99.90;;;;;;5094669;28;20432;-73
2022/05/24 00:40:53;;;;;;;3.47;2.70;;;17.90;99.90;;;;;;5094448;28;20602;-73
2022/05/24 00:43:44;;;;;;;2.93;2.63;;;17.80;99.90;;;;;;5095525;28;20473;-73
2022/05/24 00:46:42;;;;;;;4.00;2.50;;;17.90;99.90;;;;;;5104886;28;20574;-73
2022/05/24 00:49:32;;;;;;;4.33;2.73;;;17.90;99.90;;;;;;5103163;28;20483;-73
2022/05/24 00:52:23;;;;;;;3.40;2.23;;;17.90;99.90;;;;;;5097270;28;20498;-74
2022/05/24 00:55:11;;;;;;;3.40;2.47;;;17.90;99.90;;;;;;5094693;28;20448;-73
2022/05/24 00:58:07;;;;;;;3.60;2.40;;;17.90;99.90;;;;;;5100391;28;20582;-74
2022/05/24 01:00:53;;;;;;;4.20;2.70;;;18.00;99.90;;;;;;5095916;28;20469;-73
2022/05/24 01:03:39;;;;;;;4.33;3.03;;;18.00;99.90;;;;;;5096154;28;21001;-73
2022/05/24 01:06:25;;;;;;;3.30;2.20;;;17.80;99.90;;;;;;5094738;28;20445;-73
2022/05/24 01:09:16;;;;;;;5.83;2.60;;;17.80;99.90;;;;;;5096105;28;20444;-73
2022/05/24 01:12:06;;;;;;;3.13;2.20;;;17.80;99.90;;;;;;5096101;28;20502;-73
2022/05/24 01:14:54;;;;;;;4.37;2.30;;;17.80;99.90;;;;;;5106294;28;20814;-74
2022/05/24 01:17:40;;;;;;;3.83;2.27;;;17.80;99.90;;;;;;5106875;28;20861;-74
2022/05/24 01:20:27;;;;;;;7.77;3.17;;;17.80;99.90;;;;;;5097817;28;20514;-73
2022/05/24 01:23:26;;;;;;;4.20;2.97;;;17.70;99.90;;;;;;5099885;28;20518;-73
2022/05/24 01:26:19;;;;;;;3.17;2.50;;;17.70;99.90;;;;;;5096240;28;20470;-74
2022/05/24 01:29:09;;;;;;;3.37;2.37;;;17.80;99.90;;;;;;5099702;28;20611;-73
2022/05/24 01:38:03;;;;;;;4.17;2.37;;;17.90;99.90;;;;;;5097415;28;20583;-73
2022/05/24 01:40:50;;;;;;;3.50;2.10;;;17.90;99.90;;;;;;5103827;28;20893;-73
2022/05/24 01:43:38;;;;;;;9.40;2.10;;;17.90;99.90;;;;;;5102531;28;20480;-73
2022/05/24 01:46:32;;;;;;;3.27;2.23;;;18.00;99.90;;;;;;5103070;28;20511;-73
2022/05/24 01:49:25;;;;;;;2.67;2.10;;;18.00;99.90;;;;;;5098137;28;20958;-73
2022/05/24 01:52:15;;;;;;;4.20;2.40;;;18.00;99.90;;;;;;5101031;28;20415;-72
2022/05/24 01:55:07;;;;;;;4.03;2.43;;;18.00;99.90;;;;;;5096549;28;20526;-73
2022/05/24 01:57:56;;;;;;;3.27;2.57;;;17.90;99.90;;;;;;5097657;28;20529;-74
2022/05/24 02:00:47;;;;;;;3.30;2.30;;;17.90;99.90;;;;;;5093926;28;21012;-73
2022/05/24 02:03:35;;;;;;;5.03;2.70;;;17.80;99.90;;;;;;5095125;28;20473;-74
2022/05/24 02:06:24;;;;;;;4.30;2.20;;;17.70;99.90;;;;;;5099896;28;20432;-73
2022/05/24 02:09:11;;;;;;;4.30;2.73;;;17.60;99.90;;;;;;5099667;28;20518;-74
2022/05/24 02:12:00;;;;;;;3.87;2.60;;;17.50;99.90;;;;;;5096813;28;20591;-73
2022/05/24 02:14:50;;;;;;;4.90;3.50;;;17.50;99.90;;;;;;5096600;28;20448;-73
2022/05/24 02:17:41;;;;;;;8.03;3.20;;;17.50;99.90;;;;;;5099378;28;20942;-73
2022/05/24 02:20:31;;;;;;;3.80;3.07;;;17.60;99.90;;;;;;5099467;28;20448;-73
2022/05/24 02:23:19;;;;;;;3.63;2.70;;;17.70;99.90;;;;;;5098818;28;20473;-73
2022/05/24 02:26:05;;;;;;;3.77;3.20;;;17.60;99.90;;;;;;5096579;28;21078;-74
2022/05/24 02:28:52;;;;;;;4.03;3.30;;;17.70;99.90;;;;;;5106368;28;21006;-73
2022/05/24 02:31:38;;;;;;;9.10;3.40;;;17.80;99.90;;;;;;5096725;28;20648;-73
2022/05/24 02:34:23;;;;;;;3.50;2.93;;;17.90;99.90;;;;;;5099891;28;20443;-73
2022/05/24 02:37:10;;;;;;;9.00;4.23;;;17.90;99.90;;;;;;5105397;28;20449;-73
2022/05/24 02:43:00;;;;;;;5.83;4.00;;;17.90;99.90;;;;;;5101328;28;20471;-73
2022/05/24 02:45:46;;;;;;;5.60;4.00;;;17.80;99.90;;;;;;5105933;28;20934;-73
2022/05/24 02:48:31;;;;;;;6.67;3.63;;;17.80;99.90;;;;;;5107160;28;20809;-74
2022/05/24 02:51:17;;;;;;;6.77;3.47;;;17.70;99.90;;;;;;5094698;28;20420;-73
2022/05/24 02:54:06;;;;;;;8.47;4.03;;;17.70;99.90;;;;;;5110951;22;21070;-70
2022/05/24 02:56:51;;;;;;;6.37;4.40;;;17.60;99.90;;;;;;5089695;28;20773;-70
2022/05/24 02:59:37;;;;;;;10.80;4.27;;;17.60;99.90;;;;;;5092214;28;20445;-70
2022/05/24 03:02:23;;;;;;;3.80;3.20;;;17.70;99.90;;;;;;5091307;28;20506;-70
2022/05/24 03:05:12;;;;;;;7.93;4.00;;;17.70;99.90;;;;;;5068391;28;20446;-70
2022/05/24 03:11:02;;;;;;;4.80;4.10;;;17.60;99.90;;;;;;5072008;28;20489;-70
2022/05/24 03:16:53;;;;;;;8.37;5.03;;;17.60;99.90;;;;;;5070815;28;20811;-70
2022/05/24 03:19:39;;;;;;;5.90;4.00;;;17.60;99.90;;;;;;5070921;28;20433;-70
2022/05/24 03:22:25;;;;;;;7.87;4.20;;;17.60;99.90;;;;;;5070892;28;20437;-70
2022/05/24 03:25:11;;;;;;;7.87;4.77;;;17.50;99.90;;;;;;5066803;28;20552;-70
2022/05/24 03:27:58;;;;;;;7.13;4.73;;;17.50;99.90;;;;;;5071373;28;20443;-70
2022/05/24 03:30:45;;;;;;;5.90;5.10;;;17.40;99.90;;;;;;5066108;28;20467;-70
2022/05/24 03:33:31;;;;;;;7.47;4.50;;;17.40;99.90;;;;;;5068422;28;20593;-70
2022/05/24 03:36:19;;;;;;;4.83;3.90;;;17.40;99.90;;;;;;5068056;28;20459;-70
2022/05/24 03:39:05;;;;;;;5.80;4.50;;;17.40;99.90;;;;;;5063037;28;20447;-70
2022/05/24 03:41:51;;;;;;;6.10;4.23;;;17.40;99.90;;;;;;5071514;28;20506;-71
2022/05/24 03:44:38;;;;;;;5.23;4.07;;;17.40;99.90;;;;;;5065623;28;20448;-71
2022/05/24 03:47:24;;;;;;;5.70;4.47;;;17.40;99.90;;;;;;5070360;28;20447;-71
2022/05/24 03:50:10;;;;;;;7.70;5.10;;;17.50;99.90;;;;;;5069674;28;20447;-70
2022/05/24 03:52:56;;;;;;;5.80;4.53;;;17.50;99.90;;;;;;5066404;28;20446;-70
2022/05/24 03:55:42;;;;;;;8.03;5.37;;;17.60;99.90;;;;;;5068244;28;20502;-71
2022/05/24 03:58:28;;;;;;;5.33;4.83;;;17.50;99.90;;;;;;5069484;28;20446;-71
2022/05/24 04:01:16;;;;;;;6.37;5.17;;;17.40;99.90;;;;;;5066021;28;20451;-71
2022/05/24 04:04:01;;;;;;;14.47;5.57;;;17.30;99.90;;;;;;5065218;28;20605;-71
2022/05/24 04:06:47;;;;;;;6.53;4.97;;;17.20;99.90;;;;;;5068920;28;20472;-70
2022/05/24 04:09:34;;;;;;;7.50;4.40;;;17.20;99.90;;;;;;5069763;28;20435;-71
2022/05/24 04:12:19;;;;;;;7.20;4.23;;;17.10;99.90;;;;;;5069297;28;20442;-71
2022/05/24 04:15:06;;;;;;;8.20;4.87;;;17.10;99.90;;;;;;5068993;28;20542;-71
2022/05/24 04:17:55;;;;;;;5.67;3.97;;;17.30;99.90;;;;;;5069732;28;20961;-70
2022/05/24 04:20:41;;;;;;;5.60;4.37;;;17.40;99.90;;;;;;5069444;28;20442;-71
2022/05/24 04:23:26;;;;;;;3.63;3.30;;;17.40;99.90;;;;;;5060499;28;20816;-70
2022/05/24 04:26:12;;;;;;;4.47;3.70;;;17.40;99.90;;;;;;5065991;28;20446;-71
2022/05/24 04:28:57;;;;;;;4.83;3.80;;;17.40;99.90;;;;;;5064095;28;20790;-70
2022/05/24 04:31:43;;;;;;;5.60;3.60;;;17.40;99.90;;;;;;5069315;28;20457;-70
2022/05/24 04:34:30;;;;;;;6.10;3.00;;;17.40;99.90;;;;;;5064598;28;20807;-71
2022/05/24 04:37:16;;;;;;;7.50;3.50;;;17.40;99.90;;;;;;5064901;28;20425;-71
2022/05/24 04:40:02;;;;;;;3.30;2.20;;;17.40;99.90;;;;;;5069538;28;20509;-71
2022/05/24 04:42:46;;;;;;;3.50;2.90;;;17.50;99.90;;;;;;5064832;28;20451;-71
2022/05/24 04:45:32;;;;;;;4.17;2.77;;;17.40;99.90;;;;;;5062464;28;20478;-70
2022/05/24 04:48:17;;;;;;;5.13;2.50;;;17.30;99.90;;;;;;5066439;28;20405;-72
2022/05/24 04:51:04;;;;;;;3.20;2.40;;;17.30;99.90;;;;;;5064844;28;20445;-71
2022/05/24 04:53:50;;;;;;;2.63;2.20;;;17.30;99.90;;;;;;5064035;28;20838;-71
2022/05/24 04:56:35;;;;;;;4.10;2.20;;;17.40;99.90;;;;;;5065633;28;20441;-70
2022/05/24 04:59:21;;;;;;;2.70;2.10;;;17.40;99.90;;;;;;5069143;28;20501;-70
2022/05/24 05:02:08;;;;;;;5.67;2.10;;;17.50;99.90;;;;;;5066395;28;20808;-71
2022/05/24 05:04:54;;;;;;;2.90;2.00;;;17.50;99.90;;;;;;5068255;28;20457;-70
2022/05/24 05:07:41;;;;;;;3.80;1.80;;;17.40;99.90;;;;;;5068719;28;20459;-71
2022/05/24 05:10:27;;;;;;;2.90;2.23;;;17.30;99.90;;;;;;5068790;28;20433;-71
2022/05/24 05:13:13;;;;;;;2.87;2.20;;;17.40;99.90;;;;;;5060720;28;20440;-71
2022/05/24 05:15:58;;;;;;;2.93;1.70;;;17.30;99.90;;;;;;5069289;28;20416;-71
2022/05/24 05:18:45;;;;;;;3.40;2.10;;;17.40;99.90;;;;;;5068422;28;20438;-71
2022/05/24 05:21:32;;;;;;;8.47;2.17;;;17.30;99.90;;;;;;5066957;28;20455;-70
2022/05/24 05:24:20;;;;;;;3.93;2.13;;;17.40;99.90;;;;;;5067006;28;20448;-71
2022/05/24 05:27:06;;;;;;;4.00;1.70;;;17.50;99.90;;;;;;5066957;28;21150;-71
2022/05/24 05:32:55;;;;;;;2.00;1.40;;;17.70;99.90;;;;;;5062858;28;20416;-71
2022/05/24 05:35:43;;;;;;;2.37;1.50;;;17.70;99.90;;;;;;5068920;28;20827;-72
2022/05/24 05:38:29;;;;;;;1.90;1.20;;;17.60;99.90;;;;;;5068672;28;20959;-71
2022/05/24 05:41:19;;;;;;;2.13;1.50;;;17.60;99.90;;;;;;5064404;28;20425;-71
2022/05/24 05:44:05;;;;;;;5.43;1.80;;;17.70;99.90;;;;;;5065279;28;20494;-71
2022/05/24 05:46:51;;;;;;;2.10;1.60;;;17.60;99.90;;;;;;5069921;28;20849;-71
2022/05/24 05:49:37;;;;;;;2.50;1.70;;;17.50;99.90;;;;;;5068066;28;20441;-71
2022/05/24 05:52:22;;;;;;;6.53;1.50;;;17.50;99.90;;;;;;5066021;28;20528;-70
2022/05/24 05:55:09;;;;;;;5.20;1.53;;;17.40;99.90;;;;;;5064578;28;20517;-70
2022/05/24 05:57:56;;;;;;;4.40;1.70;;;17.40;99.90;;;;;;5067013;28;20589;-71
2022/05/24 06:00:42;;;;;;;3.30;1.43;;;17.40;99.90;;;;;;5068910;28;20796;-71
2022/05/24 06:03:30;;;;;;;2.33;1.33;;;17.30;99.90;;;;;;5068699;28;20488;-71
2022/05/24 06:06:19;;;;;;;4.73;1.60;;;17.20;99.90;;;;;;5069294;28;20446;-70
2022/05/24 06:09:05;;;;;;;4.90;1.80;;;17.10;99.90;;;;;;5067628;28;20421;-71
2022/05/24 06:11:51;;;;;;;9.20;1.77;;;17.10;99.90;;;;;;5065238;28;20451;-70
2022/05/24 06:14:38;;;;;;;4.37;1.60;;;17.00;99.90;;;;;;5070099;28;20465;-71
2022/05/24 06:17:24;;;;;;;2.83;1.73;;;16.90;99.90;;;;;;5072052;28;20450;-70
2022/05/24 06:20:10;;;;;;;4.67;1.20;;;16.90;99.90;;;;;;5066855;28;20458;-70
2022/05/24 06:22:57;;;;;;;2.50;1.43;;;17.10;99.90;;;;;;5068817;28;21042;-71
2022/05/24 06:25:43;;;;;;;3.60;1.27;;;17.20;99.90;;;;;;5072335;28;20416;-71
2022/05/24 06:28:29;;;;;;;6.30;1.60;;;17.20;99.90;;;;;;5070697;28;20442;-71
2022/05/24 06:31:16;;;;;;;3.10;1.30;;;17.30;99.90;;;;;;5064895;28;20492;-71
2022/05/24 06:34:02;;;;;;;2.03;1.07;;;17.20;99.90;;;;;;5067512;28;20458;-70
2022/05/24 06:36:47;;;;;;;3.50;1.30;;;17.10;99.90;;;;;;5072634;28;20413;-71
2022/05/24 06:39:33;;;;;;;3.30;1.00;;;17.10;99.90;;;;;;5071941;28;20462;-71
2022/05/24 06:42:19;;;;;;;1.80;1.10;;;17.10;99.90;;;;;;5068171;28;20461;-70
2022/05/24 06:45:06;;;;;;;3.10;1.00;;;17.10;99.90;;;;;;5067793;28;20466;-71
2022/05/24 06:47:53;;;;;;;4.50;0.97;;;17.20;99.90;;;;;;5072447;28;20443;-71
2022/05/24 06:50:39;;;;;;;2.03;0.90;;;17.30;99.90;;;;;;5068294;28;20548;-70
2022/05/24 06:53:24;;;;;;;5.07;1.13;;;17.20;99.90;;;;;;5070649;28;20482;-70
2022/05/24 06:56:10;;;;;;;2.37;0.80;;;16.90;99.90;;;;;;5069800;28;20811;-71
2022/05/24 07:05:03;;;;;;;5.27;1.10;;;16.70;99.90;;;;;;5066699;28;20470;-71
2022/05/24 07:07:48;;;;;;;1.60;0.90;;;16.70;99.90;;;;;;5069175;28;20817;-70
2022/05/24 07:10:35;;;;;;;3.00;0.77;;;16.70;99.90;;;;;;5068545;28;20763;-70
2022/05/24 07:13:21;;;;;;;2.17;0.80;;;16.90;99.90;;;;;;5069985;28;20536;-71
2022/05/24 07:16:07;;;;;;;1.93;0.70;;;16.90;99.90;;;;;;5065451;28;20455;-71
2022/05/24 07:18:52;;;;;;;2.77;0.70;;;16.90;99.90;;;;;;5071104;28;20439;-71
2022/05/24 07:21:40;;;;;;;5.10;0.70;;;16.90;99.90;;;;;;5064516;28;20442;-70
2022/05/24 07:24:25;;;;;;;2.50;0.93;;;16.90;99.90;;;;;;5070443;28;20483;-70
2022/05/24 07:27:12;;;;;;;2.30;1.00;;;16.90;99.90;;;;;;5070156;28;20517;-71
2022/05/24 07:29:57;;;;;;;3.33;0.83;;;16.70;99.90;;;;;;5071277;28;20434;-70
2022/05/24 07:32:45;;;;;;;2.87;1.37;;;16.60;99.90;;;;;;5068596;28;20418;-71
2022/05/24 07:35:31;;;;;;;1.80;0.97;;;16.40;99.90;;;;;;5072075;28;20423;-70
2022/05/24 07:38:18;;;;;;;3.60;0.90;;;16.30;99.90;;;;;;5067556;28;20807;-71
2022/05/24 07:47:11;;;;;;;2.37;1.00;;;16.40;99.90;;;;;;5069728;28;20434;-70
2022/05/24 07:49:57;;;;;;;5.63;1.10;;;16.50;99.90;;;;;;5068705;28;20417;-70
2022/05/24 07:52:42;;;;;;;4.43;1.10;;;16.50;99.90;;;;;;5065138;28;20806;-71
2022/05/24 07:55:30;;;;;;;1.73;0.87;;;16.60;99.90;;;;;;5067183;28;20438;-72
2022/05/24 07:58:16;;;;;;;2.70;1.10;;;16.80;99.90;;;;;;5068598;28;20539;-71
2022/05/24 08:01:01;;;;;;;4.50;1.10;;;16.70;99.90;;;;;;5067250;28;20552;-71
2022/05/24 08:03:47;;;;;;;3.30;1.30;;;16.60;99.90;;;;;;5070447;28;20802;-71
2022/05/24 08:06:33;;;;;;;4.17;0.90;;;16.60;99.90;;;;;;5069785;28;20424;-71
2022/05/24 08:09:18;;;;;;;4.00;1.20;;;16.70;99.90;;;;;;5067225;28;20894;-70
2022/05/24 08:12:06;;;;;;;3.10;1.30;;;16.80;99.90;;;;;;5066802;28;20417;-70
2022/05/24 08:14:53;;;;;;;2.00;0.90;;;16.90;99.90;;;;;;5069460;28;20476;-70
2022/05/24 08:17:39;;;;;;;2.20;1.03;;;17.00;99.90;;;;;;5069403;28;21169;-70
2022/05/24 08:20:25;;;;;;;1.87;1.00;;;17.30;99.90;;;;;;5063511;28;20963;-70
2022/05/24 08:23:11;;;;;;;2.37;1.20;;;17.40;99.90;;;;;;5069172;28;20486;-71
2022/05/24 08:25:57;;;;;;;1.83;0.77;;;17.50;99.90;;;;;;5068028;28;20808;-71
2022/05/24 08:28:47;;;;;;;2.90;0.80;;;17.30;99.90;;;;;;5069856;28;20446;-70
2022/05/24 08:31:33;;;;;;;2.50;1.20;;;16.90;99.90;;;;;;5064516;28;20491;-71
2022/05/24 08:34:19;;;;;;;2.17;0.80;;;16.80;99.90;;;;;;5068661;28;20433;-71
2022/05/24 08:37:06;;;;;;;2.83;0.90;;;16.80;99.90;;;;;;5063170;28;20445;-71
2022/05/24 08:39:53;;;;;;;2.00;0.83;;;16.80;99.90;;;;;;5066170;28;20421;-71
2022/05/24 08:43:03;;;;;;;2.77;1.00;;;16.90;99.90;;;;;;5068921;28;20430;-71
2022/05/24 08:49:01;;;;;;;2.33;1.27;;;17.60;99.90;;;;;;5067400;28;20581;-71
2022/05/24 08:51:52;;;;;;;1.80;0.90;;;17.80;99.90;;;;;;5065586;28;20941;-71
2022/05/24 08:54:41;;;;;;;5.50;1.43;;;17.80;99.90;;;;;;5079384;22;20477;-74
2022/05/24 08:57:36;;;;;;;2.20;0.90;;;17.80;99.90;;;;;;5066394;28;20438;-74
2022/05/24 09:00:27;;;;;;;1.87;0.93;;;17.80;99.90;;;;;;5064501;28;20891;-74
2022/05/24 09:03:13;;;;;;;3.70;1.00;;;17.70;99.90;;;;;;5062836;28;20557;-74
2022/05/24 09:06:07;;;;;;;2.27;0.80;;;17.80;99.90;;;;;;5083284;28;20481;-74
2022/05/24 09:09:02;;;;;;;2.20;0.90;;;17.80;99.90;;;;;;5078408;28;20513;-73
2022/05/24 09:12:02;;;;;;;2.13;0.97;;;17.90;99.90;;;;;;5070099;28;21006;-74
2022/05/24 09:14:56;;;;;;;2.10;1.10;;;17.70;99.90;;;;;;5070994;28;20495;-74
2022/05/24 09:17:53;;;;;;;1.87;0.80;;;17.70;99.90;;;;;;5072090;28;20786;-73
2022/05/24 09:20:42;;;;;;;6.10;1.10;;;17.60;99.90;;;;;;5068206;28;20479;-74
2022/05/24 09:23:34;;;;;;;2.67;1.17;;;17.40;99.90;;;;;;5074163;28;20453;-74
2022/05/24 09:26:22;;;;;;;3.20;0.80;;;17.30;99.90;;;;;;5073374;28;20889;-73
2022/05/24 09:29:14;;;;;;;1.87;0.80;;;17.00;99.90;;;;;;5076309;28;20461;-73
2022/05/24 09:32:04;;;;;;;6.70;0.80;;;16.90;99.90;;;;;;5076084;28;21193;-74
2022/05/24 09:35:03;;;;;;;1.77;0.80;;;17.00;99.90;;;;;;5077706;28;20468;-74
2022/05/24 09:38:13;;;;;;;1.43;0.50;;;17.00;95.60;;;;;;5069736;28;20425;-74
2022/05/24 09:41:10;;;;;;;1.63;0.60;;;17.00;95.40;;;;;;5070030;28;20510;-74
2022/05/24 09:44:03;;;;;;;1.50;0.60;;;17.00;92.60;;;;;;5071759;28;20875;-74
2022/05/24 09:46:49;;;;;;;1.77;0.60;;;17.00;92.20;;;;;;5073852;28;20921;-73
2022/05/24 09:49:36;;;;;;;2.10;0.90;;;17.00;92.80;;;;;;5066825;28;20966;-74
2022/05/24 09:52:22;;;;;;;5.33;0.70;;;17.10;94.80;;;;;;5067995;28;20430;-73
2022/05/24 09:55:10;;;;;;;2.03;0.70;;;17.10;91.60;;;;;;5063183;28;20483;-73
2022/05/24 09:58:15;;;;;;;2.33;0.80;;;17.30;93.30;;;;;;5069917;28;20427;-73
2022/05/24 10:01:04;;;;;;;2.00;1.00;;;17.40;92.30;;;;;;5066540;28;20494;-73
2022/05/24 10:03:50;;;;;;;2.80;0.80;;;17.50;93.50;;;;;;5062359;28;20497;-74
2022/05/24 10:06:37;;;;;;;3.87;0.80;;;17.60;91.60;;;;;;5071367;28;20492;-74
2022/05/24 10:09:48;;;;;;;2.47;0.70;;;17.70;91.20;;;;;;5068954;28;20429;-73
2022/05/24 10:12:48;;;;;;;1.93;0.63;;;17.70;83.50;;;;;;5070613;28;20466;-73
2022/05/24 10:15:39;;;;;;;2.83;0.90;;;17.90;83.10;;;;;;5077690;28;20415;-73
2022/05/24 10:18:35;;;;;;;2.03;0.70;;;18.10;81.90;;;;;;5070094;28;20412;-73
2022/05/24 10:21:26;;;;;;;2.33;0.87;;;18.30;79.40;;;;;;5062003;28;20831;-73
2022/05/24 10:24:30;;;;;;;5.30;0.80;;;18.30;76.80;;;;;;5070922;28;20448;-73
2022/05/24 10:27:27;;;;;;;3.10;1.00;;;18.60;80.30;;;;;;5069165;28;20500;-74
2022/05/24 10:30:20;;;;;;;2.60;0.83;;;18.90;71.40;;;;;;5060619;28;20970;-74
2022/05/24 10:39:54;;;;;;;2.20;0.80;;;19.00;66.00;;;;;;5060298;28;20662;-73
2022/05/24 10:42:54;;;;;;;8.47;1.10;;;19.10;62.90;;;;;;5068624;28;20456;-74
2022/05/24 10:45:51;;;;;;;2.97;1.00;;;19.30;64.00;;;;;;5070137;28;20464;-74
2022/05/24 10:48:42;;;;;;;2.30;0.80;;;19.50;62.10;;;;;;5071103;28;20415;-74
2022/05/24 10:51:35;;;;;;;4.57;0.90;;;19.70;64.70;;;;;;5068600;28;20900;-74
2022/05/24 10:54:32;;;;;;;1.73;0.53;;;20.10;65.00;;;;;;5068909;28;20478;-73
2022/05/24 10:57:23;;;;;;;3.30;0.80;;;19.80;51.20;;;;;;5053429;28;20887;-74
2022/05/24 11:00:13;;;;;;;3.50;0.83;;;19.80;54.10;;;;;;5058933;28;20624;-73
2022/05/24 11:03:07;;;;;;;2.43;0.93;;;19.90;57.30;;;;;;5071260;28;20780;-74
2022/05/24 11:05:56;;;;;;;3.63;0.83;;;19.90;55.60;;;;;;5073613;28;20572;-74
2022/05/24 11:08:50;;;;;;;3.73;1.30;;;20.00;56.60;;;;;;5068310;28;20594;-74
2022/05/24 11:11:41;;;;;;;2.37;0.70;;;20.40;61.40;;;;;;5069581;28;20513;-74
2022/05/24 11:14:36;;;;;;;3.50;0.70;;;20.70;56.70;;;;;;5056119;28;20998;-74
2022/05/24 11:17:22;;;;;;;6.33;0.90;;;20.50;49.70;;;;;;5068986;28;21033;-74
2022/05/24 11:20:12;;;;;;;2.50;0.60;;;20.30;49.30;;;;;;5072658;28;20518;-74
2022/05/24 11:23:06;;;;;;;2.30;0.90;;;20.60;52.80;;;;;;5071314;28;20447;-74
2022/05/24 11:25:58;;;;;;;4.03;0.70;;;20.50;49.40;;;;;;5070734;28;20831;-74
2022/05/24 11:28:49;;;;;;;1.97;0.70;;;20.80;52.60;;;;;;5076506;28;20929;-73
2022/05/24 11:31:41;;;;;;;2.10;0.80;;;20.80;46.80;;;;;;5071110;28;20472;-72
2022/05/24 11:34:30;;;;;;;3.00;1.10;;;20.30;43.60;;;;;;5069747;28;20797;-74
2022/05/24 11:37:26;;;;;;;1.60;0.60;;;19.90;47.10;;;;;;5078426;28;20517;-73
2022/05/24 11:40:34;;;;;;;1.50;0.60;;;19.60;45.30;;;;;;5076304;28;20600;-74
2022/05/24 11:43:53;;;;;;;1.50;0.70;;;19.50;48.30;;;;;;5076707;28;20536;-73
2022/05/24 11:46:45;;;;;;;3.70;1.10;;;19.40;47.30;;;;;;5073974;28;20437;-74
2022/05/24 11:50:05;;;;;;;3.13;0.80;;;19.70;49.60;;;;;;5066387;28;20564;-74
2022/05/24 11:53:10;;;;;;;2.37;0.67;;;20.10;45.50;;;;;;5072891;28;20545;-74
2022/05/24 11:56:21;;;;;;;10.83;0.63;;;20.20;41.20;;;;;;5075107;28;20451;-72
2022/05/24 11:59:11;;;;;;;2.50;0.90;;;20.20;41.50;;;;;;5072183;28;20454;-73
2022/05/24 12:01:56;;;;;;;1.70;0.70;;;20.50;44.60;;;;;;5067212;28;20451;-74
2022/05/24 12:08:07;;;;;;;3.83;1.10;;;20.90;45.10;;;;;;5077710;28;20420;-74
2022/05/24 12:11:07;;;;;;;2.13;0.77;;;20.80;40.40;;;;;;5073744;28;20535;-74
2022/05/24 12:14:10;;;;;;;3.20;0.50;;;20.90;43.90;;;;;;5078349;28;20465;-74
2022/05/24 12:17:14;;;;;;;2.10;0.67;;;21.10;39.10;;;;;;5072865;28;20962;-74
2022/05/24 12:20:01;;;;;;;2.97;0.70;;;21.30;39.40;;;;;;5068009;28;20467;-73
2022/05/24 12:23:14;;;;;;;3.47;0.77;;;21.40;39.00;;;;;;5066449;28;20443;-73
2022/05/24 12:26:04;;;;;;;2.10;0.80;;;21.60;41.30;;;;;;5075875;28;20475;-74
2022/05/24 12:28:53;;;;;;;1.80;0.60;;;21.50;43.50;;;;;;5069752;28;20430;-74
2022/05/24 12:31:39;;;;;;;3.77;0.90;;;21.60;40.20;;;;;;5068814;28;20466;-73
2022/05/24 12:34:25;;;;;;;2.07;0.80;;;21.50;37.60;;;;;;5070983;28;20472;-74
2022/05/24 12:37:19;;;;;;;1.80;0.70;;;21.50;38.90;;;;;;5061941;28;20457;-74
2022/05/24 12:40:12;;;;;;;1.50;0.60;;;21.30;36.60;;;;;;5070870;28;20450;-74
2022/05/24 12:43:08;;;;;;;1.67;0.60;;;21.30;37.00;;;;;;5067278;28;20462;-74
2022/05/24 12:45:53;;;;;;;5.47;0.70;;;21.40;37.00;;;;;;5066724;28;20466;-74
2022/05/24 12:48:39;;;;;;;1.87;0.53;;;21.80;34.40;;;;;;5075393;28;22122;-74
2022/05/24 12:51:25;;;;;;;4.37;1.00;;;22.10;37.00;;;;;;5061573;28;20495;-74
2022/05/24 12:54:17;;;;;;;2.33;0.53;;;22.10;35.90;;;;;;5064472;28;20477;-73
2022/05/24 12:57:05;;;;;;;5.30;0.90;;;22.00;34.60;;;;;;5058113;28;20443;-74
2022/05/24 12:59:56;;;;;;;1.90;0.80;;;21.90;34.20;;;;;;5064271;28;20862;-75
2022/05/24 13:02:43;;;;;;;1.93;0.80;;;21.70;34.80;;;;;;5068720;28;20990;-74
2022/05/24 13:05:36;;;;;;;6.27;1.87;;;21.40;35.90;;;;;;5059445;28;20825;-74
2022/05/24 13:08:22;;;;;;;4.30;0.93;;;21.50;37.90;;;;;;5071558;28;20834;-74
2022/05/24 13:11:09;;;;;;;2.63;0.80;;;21.40;36.30;;;;;;5072037;28;20447;-74
2022/05/24 13:13:55;;;;;;;1.90;0.97;;;21.30;38.60;;;;;;5068310;28;20546;-75
2022/05/24 13:16:42;;;;;;;9.80;0.80;;;21.10;36.70;;;;;;5074689;28;20954;-74
2022/05/24 13:19:28;;;;;;;4.60;1.10;;;21.20;39.90;;;;;;5060210;28;20454;-74
2022/05/24 13:22:15;;;;;;;4.27;1.10;;;21.60;38.40;;;;;;5062322;28;20438;-75
2022/05/24 13:25:02;;;;;;;2.10;0.80;;;22.10;38.30;;;;;;5069920;28;20471;-71
2022/05/24 13:27:56;;;;;;;2.43;0.80;;;22.00;38.60;;;;;;5068795;28;20417;-71
2022/05/24 13:33:50;;;;;;;3.73;0.70;;;21.50;39.90;;;;;;5075908;28;20461;-71
2022/05/24 13:36:43;;;;;;;1.97;0.70;;;21.50;41.20;;;;;;5075447;28;20442;-71
2022/05/24 13:39:47;;;;;;;2.10;0.63;;;21.50;35.00;;;;;;5064496;28;20441;-71
2022/05/24 13:42:32;;;;;;;2.07;0.70;;;21.40;34.90;;;;;;5070816;28;20422;-71
2022/05/24 13:45:20;;;;;;;6.13;0.90;;;21.20;37.50;;;;;;5070891;28;20446;-71
2022/05/24 13:48:25;;;;;;;6.00;0.80;;;21.20;37.90;;;;;;5069277;28;20462;-71
2022/05/24 13:51:19;;;;;;;4.23;1.13;;;21.60;34.90;;;;;;5070869;28;20525;-71
2022/05/24 13:54:04;;;;;;;1.90;0.77;;;22.00;35.70;;;;;;5064990;28;20473;-70
2022/05/24 13:56:50;;;;;;;1.80;0.60;;;21.90;32.50;;;;;;5060456;28;20454;-71
2022/05/24 13:59:36;;;;;;;2.07;0.73;;;21.70;33.30;;;;;;5069243;28;20449;-70
2022/05/24 14:02:24;;;;;;;1.80;0.80;;;21.50;34.80;;;;;;5050366;28;20461;-71
2022/05/24 14:05:29;;;;;;;2.80;0.87;;;21.30;35.00;;;;;;5062838;28;20545;-70
2022/05/24 14:08:16;;;;;;;1.93;0.67;;;21.10;34.30;;;;;;5061856;28;20457;-71
2022/05/24 14:11:03;;;;;;;1.70;0.70;;;21.10;36.40;;;;;;5056939;28;20440;-70
2022/05/24 14:13:49;;;;;;;2.13;0.77;;;20.90;34.80;;;;;;5077084;28;20752;-71
2022/05/24 14:16:36;;;;;;;3.43;0.60;;;20.70;34.70;;;;;;5065824;28;20436;-71
2022/05/24 14:19:23;;;;;;;1.60;0.57;;;20.50;35.30;;;;;;5070033;28;20553;-74
2022/05/24 14:22:09;;;;;;;1.90;0.50;;;20.50;37.20;;;;;;5064688;28;20420;-73
2022/05/24 14:24:56;;;;;;;3.60;0.70;;;20.60;36.10;;;;;;5071526;28;20804;-73
2022/05/24 14:27:42;;;;;;;1.50;0.50;;;20.60;38.30;;;;;;5067923;28;21134;-73
2022/05/24 14:30:29;;;;;;;4.23;0.60;;;20.60;36.30;;;;;;5073169;28;20451;-73
2022/05/24 14:33:17;;;;;;;2.67;0.80;;;20.60;35.50;;;;;;5072956;28;20409;-74
2022/05/24 14:36:03;;;;;;;2.87;1.47;;;20.40;35.10;;;;;;5062637;28;20429;-74
2022/05/24 14:38:49;;;;;;;2.80;0.80;;;20.40;34.70;;;;;;5070440;28;20480;-74
2022/05/24 14:41:38;;;;;;;4.07;0.87;;;20.30;35.80;;;;;;5077656;28;20417;-74
2022/05/24 14:44:26;;;;;;;3.20;0.70;;;20.30;34.70;;;;;;5070817;28;21105;-73
2022/05/24 14:47:11;;;;;;;3.53;0.87;;;20.50;37.80;;;;;;5068696;28;20846;-74
2022/05/24 14:49:57;;;;;;;2.30;1.00;;;20.60;37.90;;;;;;5075908;28;20412;-72
2022/05/24 14:52:43;;;;;;;1.60;0.60;;;20.60;37.50;;;;;;5073602;28;21158;-74
2022/05/24 14:55:29;;;;;;;2.03;0.70;;;20.60;36.60;;;;;;5091364;22;20588;-68
2022/05/24 14:58:16;;;;;;;8.30;0.80;;;20.50;37.30;;;;;;5062752;28;20800;-68
2022/05/24 15:01:02;;;;;;;3.50;1.00;;;20.50;38.60;;;;;;5068700;28;20440;-68
2022/05/24 15:03:48;;;;;;;1.93;0.70;;;20.40;36.00;;;;;;5069925;28;20520;-68
2022/05/24 15:06:33;;;;;;;3.40;0.83;;;20.50;37.50;;;;;;5049968;28;20538;-68
2022/05/24 15:15:29;;;;;;;1.60;0.60;;;20.30;36.10;;;;;;5052744;28;20850;-69
2022/05/24 15:18:15;;;;;;;2.47;1.07;;;20.20;35.40;;;;;;5044591;28;20508;-70
2022/05/24 15:21:01;;;;;;;7.03;0.90;;;20.30;34.90;;;;;;5035931;28;20475;-70
2022/05/24 15:23:50;;;;;;;4.20;1.00;;;20.30;36.20;;;;;;5053735;28;20449;-70
2022/05/24 15:26:38;;;;;;;2.67;0.90;;;20.30;36.00;;;;;;5050452;28;20502;-69
2022/05/24 15:29:24;;;;;;;1.70;0.60;;;20.40;36.40;;;;;;5050439;28;20964;-70
2022/05/24 15:32:11;;;;;;;1.80;0.80;;;20.20;36.10;;;;;;5046553;28;20495;-70